Portada
METAR-TAF:

METAR-TAF

Aeroports :

Maracaibo, Veneçuela

latitud: 10-34N, longitud: 071-44W, altitud: 66 m

Observació

L'informe es va fer fa 12 minuts, a les 02:00 UTC
Vent 4 kt del Est/Sud-Est
Temperatura 25°C
Humitat 94%
Pressió 1017 hPa
Visibilitat 10 km o més
Cel ennuvolat a una alçada de 1600 ft

METAR: SVMC 210200Z 11004KT 9999 BKN016 25/24 Q1017

Hora: 22:12 (02:12 UTC)

Pronòstic

L'informe es va fer fa 4 hores i 12 minuts, a les 22:00 UTC
Pronòstic vàlid del 21 a les 00 UTC al 22 a les 00 UTC
Vent 6 kt amb direcció variable
Visibilitat 10 km o més
Cel ennuvolat a una alçada de 1600 ft
Evolucionant progressivament
l' 21 a les 00 UTC al 21 a les 04 UTC
Vent 5 kt del Sud
Visibilitat 10 km o més
Cel ennuvolat a una alçada de 1600 ft

TAF: SVMC 202200Z 2100/2200 VRB06KT 9999 BKN016 TX33/19Z TN24/08Z BECMG 2100/2104 18005KT 9999 BKN016

Observacions i pronòstics meteorològics de més de 4000 aeroports (METAR i TAF).

Les estacions disponibles són els punts grocs i vermells al mapa.

Posi el ratolí al punt desitjat per veure el nom de l'estació.

Feu clic per veure les observacions i els pronòstics meteorològics.

Per canviar el mapa: feu clic els botons verds amb una creu de color negre per apropar; al botó verd amb un guió per allunyar la imatge; o en les fletxes verdes per a mapes adjacents.


METAR-TAF: